Time,TemperatureF,DewpointF,PressureIn,WindDirection,WindDirectionDegrees,WindSpeedMPH,WindSpeedGustMPH,Humidity,HourlyPrecipIn,Conditions,Clouds,dailyrainin,SoftwareType,DateUTC
2013-03-08 00:00:00,60.2,52.6,30.10,SE,137,7.0,11.0,76,0.00,,,0.00,VWS V14.01,2013-03-08 06:00:00,
2013-03-08 00:01:00,60.9,52.9,30.10,SE,129,6.0,11.0,75,0.00,,,0.00,VWS V14.01,2013-03-08 06:01:00,
2013-03-08 00:05:00,60.1,52.5,30.09,SE,132,9.0,13.0,76,0.00,,,0.00,VWS V14.01,2013-03-08 06:05:00,
2013-03-08 00:06:00,60.8,52.8,30.10,SE,139,8.0,16.0,75,0.00,,,0.00,VWS V14.01,2013-03-08 06:06:00,
2013-03-08 00:10:00,60.1,52.5,30.09,SE,146,7.0,13.0,76,0.00,,,0.00,VWS V14.01,2013-03-08 06:10:00,
2013-03-08 00:11:00,60.8,52.8,30.10,SSE,149,8.0,14.0,75,0.00,,,0.00,VWS V14.01,2013-03-08 06:11:00,
2013-03-08 00:15:00,60.1,52.5,30.09,SE,125,14.0,14.0,76,0.00,,,0.00,VWS V14.01,2013-03-08 06:15:00,
2013-03-08 00:16:00,60.7,53.1,30.10,SE,146,13.0,14.0,76,0.00,,,0.00,VWS V14.01,2013-03-08 06:16:00,
2013-03-08 00:20:00,60.1,52.5,30.09,SE,130,11.0,14.0,76,0.00,,,0.00,VWS V14.01,2013-03-08 06:20:00,
2013-03-08 00:21:00,60.7,53.1,30.10,SE,143,13.0,15.0,76,0.00,,,0.00,VWS V14.01,2013-03-08 06:21:00,
2013-03-08 00:25:00,60.0,52.4,30.09,SE,133,7.0,12.0,76,0.00,,,0.00,VWS V14.01,2013-03-08 06:25:00,
2013-03-08 00:26:00,60.7,53.1,30.10,SE,145,10.0,13.0,76,0.00,,,0.00,VWS V14.01,2013-03-08 06:26:00,
2013-03-08 00:30:00,60.0,52.4,30.09,SE,137,10.0,14.0,76,0.00,,,0.00,VWS V14.01,2013-03-08 06:30:00,
2013-03-08 00:31:00,60.6,52.6,30.10,SE,127,11.0,16.0,75,0.00,,,0.00,VWS V14.01,2013-03-08 06:31:00,
2013-03-08 00:35:00,60.0,52.4,30.09,SSE,151,6.0,12.0,76,0.00,,,0.00,VWS V14.01,2013-03-08 06:35:00,
2013-03-08 00:36:00,60.5,52.5,30.10,SE,130,7.0,11.0,75,0.00,,,0.00,VWS V14.01,2013-03-08 06:36:00,
2013-03-08 00:40:00,60.0,52.8,30.09,SE,139,12.0,12.0,77,0.00,,,0.00,VWS V14.01,2013-03-08 06:40:00,
2013-03-08 00:41:00,60.4,52.5,30.10,SE,139,11.0,13.0,75,0.00,,,0.00,VWS V14.01,2013-03-08 06:41:00,
2013-03-08 00:45:00,59.9,52.7,30.09,SE,130,5.0,13.0,77,0.00,,,0.00,VWS V14.01,2013-03-08 06:45:00,
2013-03-08 00:46:00,60.4,52.8,30.10,SE,141,6.0,7.0,76,0.00,,,0.00,VWS V14.01,2013-03-08 06:46:00,
2013-03-08 00:50:00,59.9,52.7,30.09,SE,144,6.0,12.0,77,0.00,,,0.00,VWS V14.01,2013-03-08 06:50:00,
2013-03-08 00:51:00,60.3,52.3,30.10,SE,137,11.0,13.0,75,0.00,,,0.00,VWS V14.01,2013-03-08 06:51:00,
2013-03-08 00:55:00,59.9,52.7,30.09,ESE,119,8.0,12.0,77,0.00,,,0.00,VWS V14.01,2013-03-08 06:55:00,
2013-03-08 00:56:00,60.3,52.7,30.10,SE,136,7.0,10.0,76,0.00,,,0.00,VWS V14.01,2013-03-08 06:56:00,
2013-03-08 01:00:00,59.9,52.7,30.09,SSE,149,11.0,11.0,77,0.00,,,0.00,VWS V14.01,2013-03-08 07:00:00,
2013-03-08 01:01:00,60.2,52.6,30.10,ESE,119,9.0,10.0,76,0.00,,,0.00,VWS V14.01,2013-03-08 07:01:00,
2013-03-08 01:05:00,59.9,53.0,30.08,SE,136,7.0,15.0,78,0.00,,,0.00,VWS V14.01,2013-03-08 07:05:00,
2013-03-08 01:06:00,60.1,52.5,30.09,SE,135,8.0,10.0,76,0.00,,,0.00,VWS V14.01,2013-03-08 07:06:00,
2013-03-08 01:10:00,59.8,52.9,30.08,SSE,158,5.0,11.0,78,0.00,,,0.00,VWS V14.01,2013-03-08 07:10:00,
2013-03-08 01:11:00,60.1,52.5,30.09,SE,126,4.0,9.0,76,0.00,,,0.00,VWS V14.01,2013-03-08 07:11:00,
2013-03-08 01:15:00,59.8,52.9,30.08,ESE,109,6.0,12.0,78,0.00,,,0.00,VWS V14.01,2013-03-08 07:15:00,
2013-03-08 01:16:00,60.1,52.5,30.09,SE,129,8.0,14.0,76,0.00,,,0.00,VWS V14.01,2013-03-08 07:16:00,
2013-03-08 01:20:00,59.8,52.9,30.08,SE,137,4.0,15.0,78,0.00,,,0.00,VWS V14.01,2013-03-08 07:20:00,
2013-03-08 01:21:00,60.1,52.5,30.09,SE,130,9.0,11.0,76,0.00,,,0.00,VWS V14.01,2013-03-08 07:21:00,
2013-03-08 01:25:00,59.7,53.2,30.08,SE,137,9.0,14.0,79,0.00,,,0.00,VWS V14.01,2013-03-08 07:25:00,
2013-03-08 01:26:00,60.0,52.4,30.09,ESE,118,7.0,10.0,76,0.00,,,0.00,VWS V14.01,2013-03-08 07:26:00,
2013-03-08 01:30:00,59.7,53.2,30.08,SSE,155,10.0,13.0,79,0.00,,,0.00,VWS V14.01,2013-03-08 07:30:00,
2013-03-08 01:31:00,60.0,52.4,30.09,ESE,116,7.0,11.0,76,0.00,,,0.00,VWS V14.01,2013-03-08 07:31:00,
2013-03-08 01:35:00,59.7,53.2,30.08,ESE,120,4.0,13.0,79,0.00,,,0.00,VWS V14.01,2013-03-08 07:35:00,
2013-03-08 01:36:00,60.0,52.8,30.09,SE,125,6.0,8.0,77,0.00,,,0.00,VWS V14.01,2013-03-08 07:36:00,
2013-03-08 01:40:00,59.7,53.2,30.08,SE,142,7.0,11.0,79,0.00,,,0.00,VWS V14.01,2013-03-08 07:40:00,
2013-03-08 01:41:00,59.9,52.7,30.09,SE,135,9.0,13.0,77,0.00,,,0.00,VWS V14.01,2013-03-08 07:41:00,
2013-03-08 01:45:00,59.6,53.1,30.07,SE,125,9.0,11.0,79,0.00,,,0.00,VWS V14.01,2013-03-08 07:45:00,
2013-03-08 01:46:00,59.9,52.7,30.09,SE,136,4.0,8.0,77,0.00,,,0.00,VWS V14.01,2013-03-08 07:46:00,
2013-03-08 01:50:00,59.6,53.1,30.07,SSE,163,6.0,11.0,79,0.00,,,0.00,VWS V14.01,2013-03-08 07:50:00,
2013-03-08 01:51:00,59.9,52.7,30.09,SSE,156,8.0,12.0,77,0.00,,,0.00,VWS V14.01,2013-03-08 07:51:00,
2013-03-08 01:55:00,59.5,53.0,30.07,SE,136,10.0,13.0,79,0.00,,,0.00,VWS V14.01,2013-03-08 07:55:00,
2013-03-08 01:56:00,59.9,52.7,30.09,SSE,149,3.0,8.0,77,0.00,,,0.00,VWS V14.01,2013-03-08 07:56:00,
2013-03-08 02:00:00,59.4,52.9,30.07,SSE,150,12.0,12.0,79,0.00,,,0.00,VWS V14.01,2013-03-08 08:00:00,
2013-03-08 02:01:00,59.9,52.7,30.09,SSE,147,10.0,12.0,77,0.00,,,0.00,VWS V14.01,2013-03-08 08:01:00,
2013-03-08 02:05:00,59.3,52.8,30.07,SE,129,8.0,12.0,79,0.00,,,0.00,VWS V14.01,2013-03-08 08:05:00,
2013-03-08 02:06:00,59.9,53.0,30.08,SSE,151,5.0,8.0,78,0.00,,,0.00,VWS V14.01,2013-03-08 08:06:00,
2013-03-08 02:10:00,59.3,53.1,30.06,ESE,119,7.0,11.0,80,0.00,,,0.00,VWS V14.01,2013-03-08 08:10:00,
2013-03-08 02:11:00,59.8,52.9,30.08,SSE,158,6.0,8.0,78,0.00,,,0.00,VWS V14.01,2013-03-08 08:11:00,
2013-03-08 02:15:00,59.3,53.1,30.06,ESE,113,13.0,14.0,80,0.00,,,0.00,VWS V14.01,2013-03-08 08:15:00,
2013-03-08 02:16:00,59.9,53.0,30.08,SSE,156,8.0,11.0,78,0.00,,,0.00,VWS V14.01,2013-03-08 08:16:00,
2013-03-08 02:20:00,59.4,53.2,30.06,SE,143,8.0,14.0,80,0.00,,,0.00,VWS V14.01,2013-03-08 08:20:00,
2013-03-08 02:21:00,59.8,52.9,30.08,SE,143,11.0,11.0,78,0.00,,,0.00,VWS V14.01,2013-03-08 08:21:00,
2013-03-08 02:25:00,59.3,53.1,30.06,SE,125,10.0,13.0,80,0.00,,,0.00,VWS V14.01,2013-03-08 08:25:00,
2013-03-08 02:26:00,59.8,53.3,30.08,SE,146,6.0,9.0,79,0.00,,,0.00,VWS V14.01,2013-03-08 08:26:00,
2013-03-08 02:30:00,59.3,53.5,30.06,SE,139,6.0,12.0,81,0.00,,,0.00,VWS V14.01,2013-03-08 08:30:00,
2013-03-08 02:31:00,59.7,53.2,30.08,SE,144,8.0,10.0,79,0.00,,,0.00,VWS V14.01,2013-03-08 08:31:00,
2013-03-08 02:35:00,59.3,53.5,30.07,SE,143,8.0,9.0,81,0.00,,,0.00,VWS V14.01,2013-03-08 08:35:00,
2013-03-08 02:36:00,59.7,53.2,30.08,SE,133,7.0,7.0,79,0.00,,,0.00,VWS V14.01,2013-03-08 08:36:00,
2013-03-08 02:40:00,59.3,53.5,30.07,SE,133,8.0,11.0,81,0.00,,,0.00,VWS V14.01,2013-03-08 08:40:00,
2013-03-08 02:41:00,59.7,53.2,30.08,ESE,118,8.0,11.0,79,0.00,,,0.00,VWS V14.01,2013-03-08 08:41:00,
2013-03-08 02:45:00,59.3,53.5,30.07,SE,133,7.0,11.0,81,0.00,,,0.00,VWS V14.01,2013-03-08 08:45:00,
2013-03-08 02:46:00,59.6,53.1,30.07,SE,136,8.0,9.0,79,0.00,,,0.00,VWS V14.01,2013-03-08 08:46:00,
2013-03-08 02:50:00,59.3,53.5,30.06,SE,146,6.0,10.0,81,0.00,,,0.00,VWS V14.01,2013-03-08 08:50:00,
2013-03-08 02:51:00,59.6,53.1,30.07,ESE,108,6.0,9.0,79,0.00,,,0.00,VWS V14.01,2013-03-08 08:51:00,
2013-03-08 02:55:00,59.2,53.4,30.06,SE,137,10.0,13.0,81,0.00,,,0.00,VWS V14.01,2013-03-08 08:55:00,
2013-03-08 02:56:00,59.5,53.0,30.06,ESE,118,10.0,12.0,79,0.00,,,0.00,VWS V14.01,2013-03-08 08:56:00,
2013-03-08 03:00:00,59.2,53.4,30.06,SE,130,9.0,12.0,81,0.00,,,0.00,VWS V14.01,2013-03-08 09:00:00,
2013-03-08 03:01:00,59.4,52.9,30.07,SE,132,7.0,11.0,79,0.00,,,0.00,VWS V14.01,2013-03-08 09:01:00,
2013-03-08 03:05:00,59.3,53.1,30.06,ESE,105,6.0,11.0,80,0.00,,,0.00,VWS V14.01,2013-03-08 09:05:00,
2013-03-08 03:10:00,59.3,53.1,30.06,ESE,123,5.0,8.0,80,0.00,,,0.00,VWS V14.01,2013-03-08 09:10:00,
2013-03-08 03:15:00,59.4,53.2,30.06,SE,142,10.0,13.0,80,0.00,,,0.00,VWS V14.01,2013-03-08 09:15:00,
2013-03-08 03:20:00,59.3,53.1,30.06,ESE,119,8.0,10.0,80,0.00,,,0.00,VWS V14.01,2013-03-08 09:20:00,
2013-03-08 03:25:00,59.3,53.1,30.06,SE,130,7.0,10.0,80,0.00,,,0.00,VWS V14.01,2013-03-08 09:25:00,
2013-03-08 03:30:00,59.3,53.5,30.07,SSE,151,5.0,7.0,81,0.00,,,0.00,VWS V14.01,2013-03-08 09:30:00,
2013-03-08 03:35:00,59.3,53.5,30.07,SE,126,8.0,9.0,81,0.00,,,0.00,VWS V14.01,2013-03-08 09:35:00,
2013-03-08 03:40:00,59.3,53.5,30.07,ESE,119,7.0,9.0,81,0.00,,,0.00,VWS V14.01,2013-03-08 09:40:00,
2013-03-08 03:45:00,59.3,53.5,30.07,ESE,118,6.0,7.0,81,0.00,,,0.00,VWS V14.01,2013-03-08 09:45:00,
2013-03-08 03:50:00,59.2,53.4,30.06,ESE,123,4.0,6.0,81,0.00,,,0.00,VWS V14.01,2013-03-08 09:50:00,
2013-03-08 03:55:00,59.2,53.4,30.06,SE,132,10.0,10.0,81,0.00,,,0.00,VWS V14.01,2013-03-08 09:55:00,
2013-03-08 04:00:00,59.2,53.4,30.06,SSE,147,7.0,9.0,81,0.00,,,0.00,VWS V14.01,2013-03-08 10:00:00,
2013-03-08 04:05:00,59.2,53.4,30.06,SE,131,9.0,9.0,81,0.00,,,0.00,VWS V14.01,2013-03-08 10:05:00,
2013-03-08 04:10:00,59.1,53.6,30.06,SE,143,4.0,7.0,82,0.00,,,0.00,VWS V14.01,2013-03-08 10:10:00,
2013-03-08 04:15:00,59.1,53.6,30.06,ESE,113,6.0,7.0,82,0.00,,,0.00,VWS V14.01,2013-03-08 10:15:00,
2013-03-08 04:20:00,59.1,53.6,30.06,ESE,120,6.0,7.0,82,0.00,,,0.00,VWS V14.01,2013-03-08 10:20:00,
2013-03-08 04:25:00,59.0,53.5,30.06,SE,133,8.0,10.0,82,0.00,,,0.00,VWS V14.01,2013-03-08 10:25:00,
2013-03-08 04:30:00,59.0,53.5,30.06,ESE,114,6.0,7.0,82,0.00,,,0.00,VWS V14.01,2013-03-08 10:30:00,
2013-03-08 04:35:00,59.0,53.5,30.06,SE,125,8.0,11.0,82,0.00,,,0.00,VWS V14.01,2013-03-08 10:35:00,
2013-03-08 04:40:00,59.0,53.5,30.05,ESE,115,7.0,8.0,82,0.00,,,0.00,VWS V14.01,2013-03-08 10:40:00,
2013-03-08 04:45:00,58.8,53.3,30.06,ESE,112,5.0,8.0,82,0.00,,,0.00,VWS V14.01,2013-03-08 10:45:00,
2013-03-08 04:50:00,58.8,53.7,30.06,SE,126,10.0,10.0,83,0.00,,,0.00,VWS V14.01,2013-03-08 10:50:00,
2013-03-08 04:55:00,58.8,53.7,30.06,SE,139,7.0,9.0,83,0.00,,,0.00,VWS V14.01,2013-03-08 10:55:00,
2013-03-08 05:00:00,58.8,53.7,30.06,SE,130,6.0,8.0,83,0.00,,,0.00,VWS V14.01,2013-03-08 11:00:00,
2013-03-08 05:05:00,58.8,53.7,30.07,SE,140,7.0,8.0,83,0.00,,,0.00,VWS V14.01,2013-03-08 11:05:00,
2013-03-08 05:10:00,58.8,53.7,30.07,SE,124,8.0,8.0,83,0.00,,,0.00,VWS V14.01,2013-03-08 11:10:00,
2013-03-08 05:15:00,58.7,53.6,30.07,SE,129,8.0,9.0,83,0.00,,,0.00,VWS V14.01,2013-03-08 11:15:00,
2013-03-08 05:20:00,58.7,53.9,30.07,ESE,106,7.0,8.0,84,0.00,,,0.00,VWS V14.01,2013-03-08 11:20:00,
2013-03-08 05:25:00,58.5,53.7,30.07,SE,133,11.0,13.0,84,0.00,,,0.00,VWS V14.01,2013-03-08 11:25:00,
2013-03-08 05:30:00,58.3,53.8,30.07,SE,136,6.0,6.0,85,0.00,,,0.00,VWS V14.01,2013-03-08 11:30:00,
2013-03-08 05:35:00,58.2,53.7,30.07,ESE,118,6.0,6.0,85,0.00,,,0.00,VWS V14.01,2013-03-08 11:35:00,
2013-03-08 05:40:00,58.0,53.5,30.08,ESE,122,11.0,11.0,85,0.00,,,0.00,VWS V14.01,2013-03-08 11:40:00,
2013-03-08 05:45:00,57.8,53.7,30.07,SE,139,9.0,9.0,86,0.00,,,0.00,VWS V14.01,2013-03-08 11:45:00,
2013-03-08 05:50:00,57.6,53.5,30.08,SE,126,7.0,8.0,86,0.00,,,0.00,VWS V14.01,2013-03-08 11:50:00,
2013-03-08 05:55:00,57.4,53.6,30.08,SE,135,8.0,8.0,87,0.00,,,0.00,VWS V14.01,2013-03-08 11:55:00,
2013-03-08 06:00:00,57.4,53.6,30.08,SE,137,6.0,13.0,87,0.00,,,0.00,VWS V14.01,2013-03-08 12:00:00,
2013-03-08 06:05:00,57.5,53.7,30.07,ESE,123,7.0,8.0,87,0.00,,,0.00,VWS V14.01,2013-03-08 12:05:00,
2013-03-08 06:10:00,57.5,53.7,30.07,SE,124,8.0,8.0,87,0.00,,,0.00,VWS V14.01,2013-03-08 12:10:00,
2013-03-08 06:15:00,57.4,53.9,30.07,ESE,111,8.0,8.0,88,0.00,,,0.00,VWS V14.01,2013-03-08 12:15:00,
2013-03-08 06:20:00,57.2,53.7,30.07,ESE,119,7.0,8.0,88,0.00,,,0.00,VWS V14.01,2013-03-08 12:20:00,
2013-03-08 06:25:00,57.1,53.6,30.06,ESE,122,7.0,8.0,88,0.00,,,0.00,VWS V14.01,2013-03-08 12:25:00,
2013-03-08 06:30:00,57.0,53.8,30.07,East,99,6.0,6.0,89,0.00,,,0.00,VWS V14.01,2013-03-08 12:30:00,
2013-03-08 06:35:00,57.0,53.8,30.06,ESE,120,9.0,10.0,89,0.00,,,0.00,VWS V14.01,2013-03-08 12:35:00,
2013-03-08 06:40:00,56.9,53.7,30.06,ESE,116,11.0,11.0,89,0.00,,,0.00,VWS V14.01,2013-03-08 12:40:00,
2013-03-08 06:45:00,56.7,53.5,30.07,SE,129,8.0,11.0,89,0.00,,,0.00,VWS V14.01,2013-03-08 12:45:00,
2013-03-08 06:50:00,56.7,53.5,30.07,ESE,109,9.0,12.0,89,0.00,,,0.00,VWS V14.01,2013-03-08 12:50:00,
2013-03-08 06:55:00,56.7,53.5,30.07,ESE,108,9.0,11.0,89,0.00,,,0.00,VWS V14.01,2013-03-08 12:55:00,
2013-03-08 07:00:00,56.7,53.8,30.07,SE,133,6.0,11.0,90,0.00,,,0.00,VWS V14.01,2013-03-08 13:00:00,
2013-03-08 07:05:00,56.7,53.8,30.07,ESE,111,9.0,11.0,90,0.00,,,0.00,VWS V14.01,2013-03-08 13:05:00,
2013-03-08 07:10:00,56.8,53.9,30.07,ESE,112,7.0,14.0,90,0.00,,,0.00,VWS V14.01,2013-03-08 13:10:00,
2013-03-08 07:15:00,56.8,53.9,30.07,ESE,120,6.0,9.0,90,0.00,,,0.00,VWS V14.01,2013-03-08 13:15:00,
2013-03-08 07:20:00,56.8,53.9,30.07,ESE,104,8.0,10.0,90,0.00,,,0.00,VWS V14.01,2013-03-08 13:20:00,
2013-03-08 07:25:00,56.7,53.8,30.08,SE,132,7.0,11.0,90,0.00,,,0.00,VWS V14.01,2013-03-08 13:25:00,
2013-03-08 07:30:00,56.7,53.8,30.08,SE,126,8.0,11.0,90,0.00,,,0.00,VWS V14.01,2013-03-08 13:30:00,
2013-03-08 07:35:00,56.7,53.8,30.08,SE,125,8.0,11.0,90,0.00,,,0.00,VWS V14.01,2013-03-08 13:35:00,
2013-03-08 07:40:00,56.7,53.8,30.08,ESE,113,5.0,9.0,90,0.00,,,0.00,VWS V14.01,2013-03-08 13:40:00,
2013-03-08 07:45:00,56.6,53.7,30.08,ESE,116,8.0,11.0,90,0.00,,,0.00,VWS V14.01,2013-03-08 13:45:00,
2013-03-08 07:50:00,56.5,53.6,30.08,ESE,107,7.0,10.0,90,0.00,,,0.00,VWS V14.01,2013-03-08 13:50:00,
2013-03-08 07:55:00,56.5,53.6,30.08,SE,144,6.0,9.0,90,0.00,,,0.00,VWS V14.01,2013-03-08 13:55:00,
2013-03-08 08:00:00,56.5,53.9,30.09,ESE,111,6.0,10.0,91,0.00,,,0.00,VWS V14.01,2013-03-08 14:00:00,
2013-03-08 08:05:00,56.6,54.0,30.09,SE,125,6.0,10.0,91,0.00,,,0.00,VWS V14.01,2013-03-08 14:05:00,
2013-03-08 08:10:00,56.7,54.1,30.09,SE,134,5.0,10.0,91,0.00,,,0.00,VWS V14.01,2013-03-08 14:10:00,
2013-03-08 08:15:00,56.7,54.1,30.10,ESE,122,6.0,8.0,91,0.00,,,0.00,VWS V14.01,2013-03-08 14:15:00,
2013-03-08 08:20:00,56.8,54.2,30.10,SE,129,4.0,7.0,91,0.00,,,0.00,VWS V14.01,2013-03-08 14:20:00,
2013-03-08 08:25:00,56.8,54.2,30.11,SE,139,3.0,6.0,91,0.00,,,0.00,VWS V14.01,2013-03-08 14:25:00,
2013-03-08 08:30:00,57.0,54.4,30.11,ESE,111,4.0,9.0,91,0.00,,,0.00,VWS V14.01,2013-03-08 14:30:00,
2013-03-08 08:35:00,57.0,54.1,30.11,SE,135,8.0,8.0,90,0.00,,,0.00,VWS V14.01,2013-03-08 14:35:00,
2013-03-08 08:40:00,57.0,54.1,30.11,ESE,115,5.0,8.0,90,0.00,,,0.00,VWS V14.01,2013-03-08 14:40:00,
2013-03-08 08:45:00,57.0,54.1,30.11,ESE,116,6.0,7.0,90,0.00,,,0.00,VWS V14.01,2013-03-08 14:45:00,
2013-03-08 08:50:00,57.0,54.4,30.11,ESE,118,6.0,9.0,91,0.00,,,0.00,VWS V14.01,2013-03-08 14:50:00,
2013-03-08 08:55:00,57.0,54.4,30.11,ESE,115,7.0,8.0,91,0.00,,,0.00,VWS V14.01,2013-03-08 14:55:00,
2013-03-08 09:00:00,57.0,54.4,30.11,ESE,106,4.0,8.0,91,0.00,,,0.00,VWS V14.01,2013-03-08 15:00:00,
2013-03-08 09:05:00,56.9,54.3,30.11,ESE,114,7.0,9.0,91,0.00,,,0.00,VWS V14.01,2013-03-08 15:05:00,
2013-03-08 09:10:00,56.9,54.3,30.11,ESE,107,6.0,8.0,91,0.00,,,0.00,VWS V14.01,2013-03-08 15:10:00,
2013-03-08 09:15:00,56.9,54.3,30.12,ESE,104,4.0,6.0,91,0.00,,,0.00,VWS V14.01,2013-03-08 15:15:00,
2013-03-08 09:20:00,57.0,54.7,30.12,ESE,104,2.0,7.0,92,0.00,,,0.00,VWS V14.01,2013-03-08 15:20:00,
2013-03-08 09:25:00,57.1,54.8,30.12,East,88,3.0,6.0,92,0.00,,,0.00,VWS V14.01,2013-03-08 15:25:00,
2013-03-08 09:30:00,57.2,54.9,30.13,East,82,1.0,4.0,92,0.00,,,0.00,VWS V14.01,2013-03-08 15:30:00,
2013-03-08 09:35:00,57.2,54.9,30.13,ENE,70,2.0,3.0,92,0.00,,,0.00,VWS V14.01,2013-03-08 15:35:00,
2013-03-08 09:40:00,57.2,54.9,30.13,East,99,3.0,4.0,92,0.00,,,0.00,VWS V14.01,2013-03-08 15:40:00,
2013-03-08 09:45:00,57.2,54.9,30.13,ENE,78,3.0,4.0,92,0.00,,,0.00,VWS V14.01,2013-03-08 15:45:00,
2013-03-08 09:50:00,57.2,54.9,30.13,East,97,3.0,5.0,92,0.00,,,0.00,VWS V14.01,2013-03-08 15:50:00,
2013-03-08 09:55:00,57.3,55.0,30.13,ESE,102,4.0,5.0,92,0.00,,,0.00,VWS V14.01,2013-03-08 15:55:00,
2013-03-08 10:00:00,57.4,55.1,30.13,East,81,2.0,4.0,92,0.00,,,0.00,VWS V14.01,2013-03-08 16:00:00,
2013-03-08 10:05:00,57.4,55.1,30.12,East,91,5.0,7.0,92,0.00,,,0.00,VWS V14.01,2013-03-08 16:05:00,
2013-03-08 10:10:00,57.5,55.2,30.12,ESE,108,4.0,6.0,92,0.00,,,0.00,VWS V14.01,2013-03-08 16:10:00,
2013-03-08 10:15:00,57.6,55.3,30.12,East,90,4.0,8.0,92,0.00,,,0.00,VWS V14.01,2013-03-08 16:15:00,
2013-03-08 10:20:00,57.8,55.5,30.11,East,98,8.0,8.0,92,0.00,,,0.00,VWS V14.01,2013-03-08 16:20:00,
2013-03-08 10:25:00,57.8,55.5,30.11,East,87,7.0,9.0,92,0.00,,,0.00,VWS V14.01,2013-03-08 16:25:00,
2013-03-08 10:30:00,57.8,55.5,30.10,ESE,111,7.0,10.0,92,0.00,,,0.00,VWS V14.01,2013-03-08 16:30:00,
2013-03-08 10:35:00,57.9,55.6,30.10,ENE,73,6.0,12.0,92,0.00,,,0.00,VWS V14.01,2013-03-08 16:35:00,
2013-03-08 10:40:00,58.0,55.7,30.10,East,99,5.0,11.0,92,0.00,,,0.00,VWS V14.01,2013-03-08 16:40:00,
2013-03-08 10:45:00,58.0,55.7,30.10,ESE,116,7.0,12.0,92,0.00,,,0.00,VWS V14.01,2013-03-08 16:45:00,
2013-03-08 10:50:00,58.2,55.9,30.09,ESE,111,8.0,13.0,92,0.00,,,0.00,VWS V14.01,2013-03-08 16:50:00,
2013-03-08 10:55:00,58.3,56.0,30.09,SE,127,8.0,11.0,92,0.00,,,0.00,VWS V14.01,2013-03-08 16:55:00,
2013-03-08 11:00:00,58.3,56.0,30.09,ESE,115,9.0,10.0,92,0.00,,,0.00,VWS V14.01,2013-03-08 17:00:00,
2013-03-08 11:05:00,58.4,56.1,30.09,East,98,7.0,8.0,92,0.00,,,0.00,VWS V14.01,2013-03-08 17:05:00,
2013-03-08 11:10:00,58.6,56.3,30.10,ESE,116,9.0,11.0,92,0.00,,,0.00,VWS V14.01,2013-03-08 17:10:00,
2013-03-08 11:15:00,58.7,56.4,30.10,ESE,115,5.0,11.0,92,0.00,,,0.00,VWS V14.01,2013-03-08 17:15:00,
2013-03-08 11:20:00,58.8,56.5,30.10,ESE,116,7.0,11.0,92,0.00,,,0.00,VWS V14.01,2013-03-08 17:20:00,
2013-03-08 11:25:00,59.0,56.7,30.10,East,94,3.0,10.0,92,0.00,,,0.00,VWS V14.01,2013-03-08 17:25:00,
2013-03-08 11:30:00,59.1,56.8,30.11,ESE,116,5.0,8.0,92,0.00,,,0.00,VWS V14.01,2013-03-08 17:30:00,
2013-03-08 11:35:00,59.0,56.7,30.11,ESE,104,4.0,10.0,92,0.00,,,0.00,VWS V14.01,2013-03-08 17:35:00,
2013-03-08 11:40:00,58.9,56.6,30.11,ESE,115,4.0,11.0,92,0.00,,,0.00,VWS V14.01,2013-03-08 17:40:00,
2013-03-08 11:45:00,58.9,56.6,30.12,ESE,118,6.0,8.0,92,0.00,,,0.00,VWS V14.01,2013-03-08 17:45:00,
2013-03-08 11:50:00,58.9,56.6,30.11,ESE,116,7.0,10.0,92,0.00,,,0.00,VWS V14.01,2013-03-08 17:50:00,
2013-03-08 11:55:00,58.9,56.6,30.11,ESE,120,6.0,10.0,92,0.00,,,0.00,VWS V14.01,2013-03-08 17:55:00,
2013-03-08 12:00:00,58.9,56.6,30.10,ESE,112,9.0,11.0,92,0.00,,,0.00,VWS V14.01,2013-03-08 18:00:00,
2013-03-08 12:05:00,58.9,56.6,30.09,ESE,116,8.0,12.0,92,0.00,,,0.00,VWS V14.01,2013-03-08 18:05:00,
2013-03-08 12:10:00,58.9,56.6,30.08,ESE,120,10.0,13.0,92,0.00,,,0.00,VWS V14.01,2013-03-08 18:10:00,
2013-03-08 12:15:00,59.0,57.0,30.08,East,97,7.0,10.0,93,0.00,,,0.00,VWS V14.01,2013-03-08 18:15:00,
2013-03-08 12:20:00,59.0,57.0,30.08,ESE,109,10.0,11.0,93,0.00,,,0.00,VWS V14.01,2013-03-08 18:20:00,
2013-03-08 12:25:00,59.1,57.1,30.08,SE,126,7.0,11.0,93,0.00,,,0.00,VWS V14.01,2013-03-08 18:25:00,
2013-03-08 12:30:00,59.1,57.1,30.08,SE,130,6.0,10.0,93,0.00,,,0.00,VWS V14.01,2013-03-08 18:30:00,
2013-03-08 12:35:00,59.0,57.0,30.08,ESE,118,8.0,10.0,93,0.00,,,0.00,VWS V14.01,2013-03-08 18:35:00,
2013-03-08 12:40:00,59.0,57.0,30.08,ESE,120,8.0,10.0,93,0.00,,,0.00,VWS V14.01,2013-03-08 18:40:00,
2013-03-08 12:45:00,59.0,57.0,30.08,ESE,111,7.0,11.0,93,0.00,,,0.00,VWS V14.01,2013-03-08 18:45:00,
2013-03-08 12:50:00,59.1,57.1,30.07,ESE,113,6.0,12.0,93,0.00,,,0.00,VWS V14.01,2013-03-08 18:50:00,
2013-03-08 12:55:00,59.1,57.1,30.06,ESE,104,10.0,12.0,93,0.00,,,0.00,VWS V14.01,2013-03-08 18:55:00,
2013-03-08 13:00:00,59.1,57.1,30.06,ESE,113,8.0,12.0,93,0.00,,,0.00,VWS V14.01,2013-03-08 19:00:00,
2013-03-08 13:05:00,59.2,57.2,30.06,SE,128,7.0,12.0,93,0.00,,,0.00,VWS V14.01,2013-03-08 19:05:00,
2013-03-08 13:10:00,59.2,57.2,30.06,ESE,115,5.0,8.0,93,0.00,,,0.00,VWS V14.01,2013-03-08 19:10:00,
2013-03-08 13:15:00,59.2,57.2,30.06,ESE,106,8.0,11.0,93,0.00,,,0.00,VWS V14.01,2013-03-08 19:15:00,
2013-03-08 13:20:00,59.2,57.2,30.06,SSE,153,5.0,10.0,93,0.00,,,0.00,VWS V14.01,2013-03-08 19:20:00,
2013-03-08 13:25:00,59.2,57.2,30.06,SE,132,8.0,10.0,93,0.00,,,0.00,VWS V14.01,2013-03-08 19:25:00,
2013-03-08 13:30:00,59.3,57.3,30.06,SE,133,6.0,9.0,93,0.00,,,0.00,VWS V14.01,2013-03-08 19:30:00,
2013-03-08 13:35:00,59.3,57.3,30.06,ESE,113,6.0,10.0,93,0.00,,,0.00,VWS V14.01,2013-03-08 19:35:00,
2013-03-08 13:40:00,59.3,57.3,30.05,ESE,120,8.0,9.0,93,0.00,,,0.00,VWS V14.01,2013-03-08 19:40:00,
2013-03-08 13:45:00,59.3,57.3,30.06,SE,132,9.0,10.0,93,0.00,,,0.00,VWS V14.01,2013-03-08 19:45:00,
2013-03-08 13:50:00,59.4,57.7,30.05,SE,133,7.0,10.0,94,0.00,,,0.00,VWS V14.01,2013-03-08 19:50:00,
2013-03-08 13:55:00,59.5,57.8,30.05,SE,126,7.0,11.0,94,0.00,,,0.00,VWS V14.01,2013-03-08 19:55:00,
2013-03-08 14:00:00,59.6,57.9,30.05,ESE,119,10.0,10.0,94,0.00,,,0.00,VWS V14.01,2013-03-08 20:00:00,
2013-03-08 14:05:00,59.6,57.6,30.05,ESE,123,6.0,10.0,93,0.00,,,0.00,VWS V14.01,2013-03-08 20:05:00,
2013-03-08 14:10:00,59.7,57.7,30.05,ESE,120,8.0,10.0,93,0.00,,,0.00,VWS V14.01,2013-03-08 20:10:00,
2013-03-08 14:15:00,59.9,58.2,30.05,ESE,122,9.0,10.0,94,0.00,,,0.00,VWS V14.01,2013-03-08 20:15:00,
2013-03-08 14:20:00,59.9,57.9,30.05,ESE,118,6.0,10.0,93,0.00,,,0.00,VWS V14.01,2013-03-08 20:20:00,
2013-03-08 14:25:00,60.0,58.0,30.05,SE,126,6.0,8.0,93,0.00,,,0.00,VWS V14.01,2013-03-08 20:25:00,
2013-03-08 14:30:00,60.0,58.0,30.04,SE,133,6.0,8.0,93,0.00,,,0.00,VWS V14.01,2013-03-08 20:30:00,
2013-03-08 14:35:00,60.1,58.1,30.04,ESE,105,6.0,9.0,93,0.00,,,0.00,VWS V14.01,2013-03-08 20:35:00,
2013-03-08 14:40:00,60.2,58.2,30.04,ESE,112,6.0,10.0,93,0.00,,,0.00,VWS V14.01,2013-03-08 20:40:00,
2013-03-08 14:45:00,60.3,58.3,30.03,ESE,112,7.0,11.0,93,0.00,,,0.00,VWS V14.01,2013-03-08 20:45:00,
2013-03-08 14:50:00,60.6,58.6,30.02,East,101,9.0,11.0,93,0.00,,,0.00,VWS V14.01,2013-03-08 20:50:00,
2013-03-08 14:55:00,60.7,58.7,30.02,ESE,120,8.0,12.0,93,0.00,,,0.00,VWS V14.01,2013-03-08 20:55:00,
2013-03-08 15:00:00,60.7,58.7,30.02,ESE,109,6.0,12.0,93,0.00,,,0.00,VWS V14.01,2013-03-08 21:00:00,
2013-03-08 15:05:00,60.8,58.8,30.01,ESE,104,6.0,13.0,93,0.00,,,0.00,VWS V14.01,2013-03-08 21:05:00,
2013-03-08 15:10:00,60.9,58.9,30.01,ESE,115,10.0,13.0,93,0.00,,,0.00,VWS V14.01,2013-03-08 21:10:00,
2013-03-08 15:15:00,61.1,59.1,30.01,ESE,108,8.0,14.0,93,0.00,,,0.00,VWS V14.01,2013-03-08 21:15:00,
2013-03-08 15:20:00,61.1,59.1,30.01,ESE,109,11.0,12.0,93,0.00,,,0.00,VWS V14.01,2013-03-08 21:20:00,
2013-03-08 15:25:00,61.2,59.2,30.01,SE,125,8.0,13.0,93,0.00,,,0.00,VWS V14.01,2013-03-08 21:25:00,
2013-03-08 15:30:00,61.4,59.4,30.01,ESE,115,8.0,12.0,93,0.00,,,0.00,VWS V14.01,2013-03-08 21:30:00,
2013-03-08 15:35:00,61.3,59.3,30.01,SE,133,12.0,15.0,93,0.00,,,0.00,VWS V14.01,2013-03-08 21:35:00,
2013-03-08 15:40:00,61.2,59.2,30.01,ESE,115,12.0,15.0,93,0.00,,,0.00,VWS V14.01,2013-03-08 21:40:00,
2013-03-08 15:45:00,61.2,59.2,30.00,ESE,108,10.0,15.0,93,0.00,,,0.00,VWS V14.01,2013-03-08 21:45:00,
2013-03-08 15:50:00,61.2,59.2,30.00,ESE,113,12.0,14.0,93,0.00,,,0.00,VWS V14.01,2013-03-08 21:50:00,
2013-03-08 15:55:00,61.1,59.1,30.00,East,98,9.0,13.0,93,0.01,,,0.01,VWS V14.01,2013-03-08 21:55:00,
2013-03-08 16:00:00,61.1,59.1,30.00,ESE,113,9.0,14.0,93,0.01,,,0.01,VWS V14.01,2013-03-08 22:00:00,
2013-03-08 16:05:00,61.0,59.0,30.00,ESE,113,9.0,12.0,93,0.01,,,0.01,VWS V14.01,2013-03-08 22:05:00,
2013-03-08 16:10:00,61.0,59.0,30.01,ESE,115,7.0,9.0,93,0.01,,,0.01,VWS V14.01,2013-03-08 22:10:00,
2013-03-08 16:15:00,61.0,59.0,30.01,ESE,116,7.0,12.0,93,0.01,,,0.01,VWS V14.01,2013-03-08 22:15:00,
2013-03-08 16:20:00,61.1,59.1,30.01,ESE,108,5.0,10.0,93,0.01,,,0.01,VWS V14.01,2013-03-08 22:20:00,
2013-03-08 16:25:00,61.2,59.2,30.01,ESE,111,6.0,9.0,93,0.01,,,0.01,VWS V14.01,2013-03-08 22:25:00,
2013-03-08 16:30:00,61.2,59.2,30.01,ESE,119,8.0,9.0,93,0.01,,,0.01,VWS V14.01,2013-03-08 22:30:00,
2013-03-08 16:35:00,61.3,59.3,30.01,East,99,7.0,9.0,93,0.01,,,0.01,VWS V14.01,2013-03-08 22:35:00,
2013-03-08 16:40:00,61.3,59.3,30.01,ESE,111,8.0,11.0,93,0.01,,,0.01,VWS V14.01,2013-03-08 22:40:00,
2013-03-08 16:45:00,61.4,59.4,30.00,ESE,108,8.0,12.0,93,0.01,,,0.01,VWS V14.01,2013-03-08 22:45:00,
2013-03-08 16:50:00,61.4,59.4,30.00,ESE,113,10.0,12.0,93,0.01,,,0.01,VWS V14.01,2013-03-08 22:50:00,
2013-03-08 16:55:00,61.4,59.4,29.99,ESE,118,8.0,14.0,93,0.01,,,0.01,VWS V14.01,2013-03-08 22:55:00,
2013-03-08 17:00:00,61.6,59.6,29.99,ESE,113,10.0,13.0,93,0.00,,,0.01,VWS V14.01,2013-03-08 23:00:00,
2013-03-08 17:05:00,61.6,59.6,29.99,ESE,116,8.0,14.0,93,0.00,,,0.01,VWS V14.01,2013-03-08 23:05:00,
2013-03-08 17:10:00,61.6,59.6,29.99,ESE,111,7.0,11.0,93,0.00,,,0.01,VWS V14.01,2013-03-08 23:10:00,
2013-03-08 17:15:00,61.7,59.7,30.00,SE,129,7.0,11.0,93,0.00,,,0.01,VWS V14.01,2013-03-08 23:15:00,
2013-03-08 17:20:00,61.8,59.8,30.00,ESE,112,8.0,10.0,93,0.00,,,0.01,VWS V14.01,2013-03-08 23:20:00,
2013-03-08 17:25:00,61.9,59.9,29.99,ESE,106,8.0,10.0,93,0.00,,,0.01,VWS V14.01,2013-03-08 23:25:00,
2013-03-08 17:30:00,62.0,60.0,29.99,ESE,118,7.0,12.0,93,0.00,,,0.01,VWS V14.01,2013-03-08 23:30:00,
2013-03-08 17:35:00,62.1,60.1,29.99,ESE,106,11.0,14.0,93,0.00,,,0.01,VWS V14.01,2013-03-08 23:35:00,
2013-03-08 17:40:00,62.2,60.2,29.99,ESE,106,6.0,12.0,93,0.00,,,0.01,VWS V14.01,2013-03-08 23:40:00,
2013-03-08 17:45:00,62.3,60.2,29.98,ESE,109,7.0,11.0,93,0.00,,,0.01,VWS V14.01,2013-03-08 23:45:00,
2013-03-08 17:50:00,62.4,60.3,29.99,ESE,111,7.0,10.0,93,0.00,,,0.01,VWS V14.01,2013-03-08 23:50:00,
2013-03-08 17:55:00,62.6,60.5,29.99,ESE,116,9.0,10.0,93,0.00,,,0.01,VWS V14.01,2013-03-08 23:55:00,
2013-03-08 18:00:00,62.7,60.7,29.98,ESE,116,6.0,11.0,93,0.00,,,0.01,VWS V14.01,2013-03-09 00:00:00,
2013-03-08 18:05:00,62.8,60.8,29.99,SE,126,7.0,12.0,93,0.00,,,0.01,VWS V14.01,2013-03-09 00:05:00,
2013-03-08 18:09:00,62.9,60.8,29.99,ESE,116,6.0,8.0,93,0.00,,,0.01,VWS V14.01,2013-03-09 00:09:00,
2013-03-08 18:10:00,63.4,60.7,29.99,ESE,120,11.0,11.0,91,0.00,,,0.01,VWS V14.01,2013-03-09 00:10:00,
2013-03-08 18:14:00,63.0,61.0,29.99,SE,143,9.0,10.0,93,0.00,,,0.01,VWS V14.01,2013-03-09 00:14:00,
2013-03-08 18:15:00,63.5,60.8,29.99,SE,126,7.0,12.0,91,0.00,,,0.01,VWS V14.01,2013-03-09 00:15:00,
2013-03-08 18:19:00,63.1,61.0,30.00,SE,129,6.0,8.0,93,0.00,,,0.01,VWS V14.01,2013-03-09 00:19:00,
2013-03-08 18:20:00,63.5,60.8,30.00,SE,127,10.0,11.0,91,0.00,,,0.01,VWS V14.01,2013-03-09 00:20:00,
2013-03-08 18:24:00,63.2,61.2,30.00,SE,129,7.0,8.0,93,0.00,,,0.01,VWS V14.01,2013-03-09 00:24:00,
2013-03-08 18:25:00,63.6,60.6,30.00,ESE,109,7.0,12.0,90,0.00,,,0.01,VWS V14.01,2013-03-09 00:25:00,
2013-03-08 18:29:00,63.2,60.8,30.00,SE,138,6.0,8.0,92,0.00,,,0.01,VWS V14.01,2013-03-09 00:29:00,
2013-03-08 18:30:00,63.7,60.7,30.00,SE,140,10.0,12.0,90,0.00,,,0.01,VWS V14.01,2013-03-09 00:30:00,
2013-03-08 18:34:00,63.3,60.9,30.00,ESE,113,7.0,9.0,92,0.00,,,0.01,VWS V14.01,2013-03-09 00:34:00,
2013-03-08 18:35:00,63.8,60.5,30.00,ESE,120,9.0,14.0,89,0.00,,,0.01,VWS V14.01,2013-03-09 00:35:00,
2013-03-08 18:39:00,63.3,60.9,30.00,ESE,123,6.0,8.0,92,0.00,,,0.01,VWS V14.01,2013-03-09 00:39:00,
2013-03-08 18:40:00,63.9,60.6,30.00,SE,136,6.0,13.0,89,0.00,,,0.01,VWS V14.01,2013-03-09 00:40:00,
2013-03-08 18:44:00,63.3,60.9,30.00,ESE,116,7.0,9.0,92,0.00,,,0.01,VWS V14.01,2013-03-09 00:44:00,
2013-03-08 18:45:00,63.8,60.2,30.01,ESE,120,6.0,9.0,88,0.00,,,0.01,VWS V14.01,2013-03-09 00:45:00,
2013-03-08 18:49:00,63.4,61.0,30.00,ESE,116,4.0,9.0,92,0.00,,,0.01,VWS V14.01,2013-03-09 00:49:00,
2013-03-08 18:50:00,63.8,60.2,30.01,ESE,120,6.0,9.0,88,0.00,,,0.01,VWS V14.01,2013-03-09 00:50:00,
2013-03-08 18:54:00,63.4,61.0,30.00,SE,129,8.0,10.0,92,0.00,,,0.01,VWS V14.01,2013-03-09 00:54:00,
2013-03-08 18:55:00,63.8,60.2,30.01,SE,132,9.0,12.0,88,0.00,,,0.01,VWS V14.01,2013-03-09 00:55:00,
2013-03-08 18:59:00,63.4,61.0,30.00,ESE,108,9.0,9.0,92,0.00,,,0.01,VWS V14.01,2013-03-09 00:59:00,
2013-03-08 19:00:00,63.9,60.0,30.01,ESE,121,7.0,11.0,87,0.00,,,0.01,VWS V14.01,2013-03-09 01:00:00,
2013-03-08 19:04:00,63.4,60.7,29.99,ESE,116,7.0,12.0,91,0.00,,,0.01,VWS V14.01,2013-03-09 01:04:00,
2013-03-08 19:05:00,63.8,59.9,30.01,ESE,119,6.0,12.0,87,0.00,,,0.01,VWS V14.01,2013-03-09 01:05:00,
2013-03-08 19:09:00,63.4,60.7,29.99,ESE,115,8.0,11.0,91,0.00,,,0.01,VWS V14.01,2013-03-09 01:09:00,
2013-03-08 19:10:00,63.9,60.0,30.02,SE,126,10.0,13.0,87,0.00,,,0.01,VWS V14.01,2013-03-09 01:10:00,
2013-03-08 19:14:00,63.5,60.8,29.99,ESE,112,9.0,12.0,91,0.00,,,0.01,VWS V14.01,2013-03-09 01:14:00,
2013-03-08 19:15:00,63.9,59.6,30.02,SE,129,8.0,13.0,86,0.00,,,0.01,VWS V14.01,2013-03-09 01:15:00,
2013-03-08 19:19:00,63.5,60.8,30.00,ESE,116,7.0,11.0,91,0.00,,,0.01,VWS V14.01,2013-03-09 01:19:00,
2013-03-08 19:20:00,63.9,59.6,30.02,ESE,120,11.0,12.0,86,0.00,,,0.01,VWS V14.01,2013-03-09 01:20:00,
2013-03-08 19:24:00,63.6,60.6,30.00,ESE,108,9.0,12.0,90,0.00,,,0.01,VWS V14.01,2013-03-09 01:24:00,
2013-03-08 19:25:00,64.0,59.7,30.02,SE,125,6.0,16.0,86,0.00,,,0.01,VWS V14.01,2013-03-09 01:25:00,
2013-03-08 19:29:00,63.7,60.7,30.00,SE,125,8.0,12.0,90,0.00,,,0.01,VWS V14.01,2013-03-09 01:29:00,
2013-03-08 19:30:00,64.0,59.7,30.02,ESE,123,12.0,13.0,86,0.00,,,0.01,VWS V14.01,2013-03-09 01:30:00,
2013-03-08 19:34:00,63.8,60.5,30.00,ESE,123,10.0,14.0,89,0.00,,,0.01,VWS V14.01,2013-03-09 01:34:00,
2013-03-08 19:35:00,64.0,59.7,30.02,SE,130,8.0,13.0,86,0.00,,,0.01,VWS V14.01,2013-03-09 01:35:00,
2013-03-08 19:39:00,63.9,60.6,30.00,SE,126,6.0,13.0,89,0.00,,,0.01,VWS V14.01,2013-03-09 01:39:00,
2013-03-08 19:40:00,63.9,59.6,30.02,SE,135,12.0,14.0,86,0.00,,,0.01,VWS V14.01,2013-03-09 01:40:00,
2013-03-08 19:44:00,63.8,60.2,30.01,ESE,111,7.0,9.0,88,0.00,,,0.01,VWS V14.01,2013-03-09 01:44:00,
2013-03-08 19:45:00,63.8,59.5,30.02,SE,126,7.0,15.0,86,0.00,,,0.01,VWS V14.01,2013-03-09 01:45:00,
2013-03-08 19:49:00,63.8,60.2,30.01,East,101,4.0,9.0,88,0.00,,,0.01,VWS V14.01,2013-03-09 01:49:00,
2013-03-08 19:50:00,63.8,59.5,30.02,SE,126,7.0,13.0,86,0.00,,,0.01,VWS V14.01,2013-03-09 01:50:00,
2013-03-08 19:54:00,63.8,60.2,30.01,SE,126,10.0,12.0,88,0.00,,,0.01,VWS V14.01,2013-03-09 01:54:00,
2013-03-08 19:55:00,63.7,59.4,30.02,SE,129,11.0,11.0,86,0.00,,,0.01,VWS V14.01,2013-03-09 01:55:00,
2013-03-08 19:59:00,63.8,60.2,30.01,ESE,120,7.0,11.0,88,0.00,,,0.01,VWS V14.01,2013-03-09 01:59:00,
2013-03-08 20:00:00,63.7,59.4,30.01,ESE,121,8.0,15.0,86,0.00,,,0.01,VWS V14.01,2013-03-09 02:00:00,
2013-03-08 20:04:00,63.9,60.0,30.01,SE,128,6.0,12.0,87,0.00,,,0.01,VWS V14.01,2013-03-09 02:04:00,
2013-03-08 20:05:00,63.6,59.3,30.01,ESE,118,10.0,13.0,86,0.00,,,0.01,VWS V14.01,2013-03-09 02:05:00,
2013-03-08 20:09:00,63.9,60.0,30.02,SE,140,10.0,13.0,87,0.00,,,0.01,VWS V14.01,2013-03-09 02:09:00,
2013-03-08 20:10:00,63.6,59.3,30.01,ESE,116,10.0,15.0,86,0.00,,,0.01,VWS V14.01,2013-03-09 02:10:00,
2013-03-08 20:14:00,63.9,60.0,30.02,SE,130,9.0,13.0,87,0.00,,,0.01,VWS V14.01,2013-03-09 02:14:00,
2013-03-08 20:15:00,63.5,59.2,30.01,SE,125,10.0,18.0,86,0.00,,,0.01,VWS V14.01,2013-03-09 02:15:00,
2013-03-08 20:19:00,63.9,59.6,30.02,ESE,112,7.0,12.0,86,0.00,,,0.01,VWS V14.01,2013-03-09 02:19:00,
2013-03-08 20:20:00,63.4,59.2,30.01,SSE,157,9.0,15.0,86,0.00,,,0.01,VWS V14.01,2013-03-09 02:20:00,
2013-03-08 20:24:00,64.0,59.7,30.02,ESE,123,7.0,16.0,86,0.00,,,0.01,VWS V14.01,2013-03-09 02:24:00,
2013-03-08 20:25:00,63.4,58.8,30.01,SE,135,13.0,17.0,85,0.00,,,0.01,VWS V14.01,2013-03-09 02:25:00,
2013-03-08 20:29:00,64.0,59.7,30.02,SE,144,9.0,13.0,86,0.00,,,0.01,VWS V14.01,2013-03-09 02:29:00,
2013-03-08 20:30:00,63.3,58.7,30.01,ESE,123,10.0,17.0,85,0.00,,,0.01,VWS V14.01,2013-03-09 02:30:00,
2013-03-08 20:34:00,64.0,59.7,30.02,SE,132,7.0,13.0,86,0.00,,,0.01,VWS V14.01,2013-03-09 02:34:00,
2013-03-08 20:35:00,63.3,58.7,30.01,SE,135,12.0,16.0,85,0.00,,,0.01,VWS V14.01,2013-03-09 02:35:00,
2013-03-08 20:39:00,63.9,59.6,30.02,SE,133,7.0,14.0,86,0.00,,,0.01,VWS V14.01,2013-03-09 02:39:00,
2013-03-08 20:40:00,63.3,58.7,30.01,SSE,147,6.0,15.0,85,0.00,,,0.01,VWS V14.01,2013-03-09 02:40:00,
2013-03-08 20:44:00,63.9,59.6,30.02,SE,142,5.0,15.0,86,0.00,,,0.01,VWS V14.01,2013-03-09 02:44:00,
2013-03-08 20:45:00,63.1,58.5,30.01,ESE,120,8.0,15.0,85,0.00,,,0.01,VWS V14.01,2013-03-09 02:45:00,
2013-03-08 20:49:00,63.7,59.4,30.02,SE,126,10.0,13.0,86,0.00,,,0.01,VWS V14.01,2013-03-09 02:49:00,
2013-03-08 20:50:00,63.1,58.5,30.01,ESE,108,10.0,18.0,85,0.00,,,0.01,VWS V14.01,2013-03-09 02:50:00,
2013-03-08 20:54:00,63.7,59.4,30.02,SE,139,9.0,10.0,86,0.00,,,0.01,VWS V14.01,2013-03-09 02:54:00,
2013-03-08 20:55:00,63.0,58.4,30.00,SE,135,7.0,14.0,85,0.00,,,0.01,VWS V14.01,2013-03-09 02:55:00,
2013-03-08 20:59:00,63.7,59.4,30.01,ESE,119,5.0,15.0,86,0.00,,,0.01,VWS V14.01,2013-03-09 02:59:00,
2013-03-08 21:00:00,62.9,58.7,30.00,ESE,123,11.0,18.0,86,0.00,,,0.01,VWS V14.01,2013-03-09 03:00:00,
2013-03-08 21:04:00,63.6,59.3,30.01,SE,128,10.0,13.0,86,0.00,,,0.01,VWS V14.01,2013-03-09 03:04:00,
2013-03-08 21:05:00,62.9,58.3,30.00,SE,137,11.0,13.0,85,0.00,,,0.01,VWS V14.01,2013-03-09 03:05:00,
2013-03-08 21:09:00,63.6,59.3,30.01,ESE,119,11.0,15.0,86,0.00,,,0.01,VWS V14.01,2013-03-09 03:09:00,
2013-03-08 21:10:00,63.0,58.4,30.00,SE,137,10.0,19.0,85,0.00,,,0.01,VWS V14.01,2013-03-09 03:10:00,
2013-03-08 21:14:00,63.5,59.2,30.01,SE,132,12.0,18.0,86,0.00,,,0.01,VWS V14.01,2013-03-09 03:14:00,
2013-03-08 21:15:00,63.0,58.4,30.01,SE,142,11.0,17.0,85,0.00,,,0.01,VWS V14.01,2013-03-09 03:15:00,
2013-03-08 21:19:00,63.5,59.2,30.01,SSE,162,10.0,15.0,86,0.00,,,0.01,VWS V14.01,2013-03-09 03:19:00,
2013-03-08 21:20:00,63.0,58.4,30.01,SE,138,9.0,18.0,85,0.00,,,0.01,VWS V14.01,2013-03-09 03:20:00,
2013-03-08 21:24:00,63.4,58.8,30.01,SE,128,8.0,16.0,85,0.00,,,0.01,VWS V14.01,2013-03-09 03:24:00,
2013-03-08 21:25:00,63.0,58.4,30.01,ESE,119,13.0,18.0,85,0.00,,,0.01,VWS V14.01,2013-03-09 03:25:00,
2013-03-08 21:29:00,63.3,58.7,30.01,SE,136,10.0,17.0,85,0.00,,,0.01,VWS V14.01,2013-03-09 03:29:00,
2013-03-08 21:30:00,62.9,58.3,30.00,SE,130,14.0,17.0,85,0.00,,,0.01,VWS V14.01,2013-03-09 03:30:00,
2013-03-08 21:34:00,63.3,58.7,30.01,SE,145,9.0,15.0,85,0.00,,,0.01,VWS V14.01,2013-03-09 03:34:00,
2013-03-08 21:35:00,62.9,58.3,30.00,ESE,111,11.0,17.0,85,0.00,,,0.01,VWS V14.01,2013-03-09 03:35:00,
2013-03-08 21:39:00,63.3,58.7,30.01,SE,134,13.0,15.0,85,0.00,,,0.01,VWS V14.01,2013-03-09 03:39:00,
2013-03-08 21:40:00,62.9,58.3,30.01,ESE,113,10.0,17.0,85,0.00,,,0.01,VWS V14.01,2013-03-09 03:40:00,
2013-03-08 21:44:00,63.1,58.5,30.01,SE,133,9.0,15.0,85,0.00,,,0.01,VWS V14.01,2013-03-09 03:44:00,
2013-03-08 21:45:00,62.9,58.3,30.00,ESE,123,7.0,17.0,85,0.00,,,0.01,VWS V14.01,2013-03-09 03:45:00,
2013-03-08 21:49:00,63.1,58.5,30.01,SE,132,9.0,18.0,85,0.00,,,0.01,VWS V14.01,2013-03-09 03:49:00,
2013-03-08 21:50:00,62.8,58.2,30.00,SE,126,9.0,19.0,85,0.00,,,0.01,VWS V14.01,2013-03-09 03:50:00,
2013-03-08 21:54:00,63.0,58.4,30.00,SE,129,9.0,14.0,85,0.00,,,0.01,VWS V14.01,2013-03-09 03:54:00,
2013-03-08 21:55:00,62.8,58.2,30.00,SE,137,7.0,17.0,85,0.00,,,0.01,VWS V14.01,2013-03-09 03:55:00,
2013-03-08 21:59:00,62.9,58.7,30.00,SE,130,12.0,15.0,86,0.00,,,0.01,VWS V14.01,2013-03-09 03:59:00,
2013-03-08 22:00:00,62.8,58.2,30.00,SSE,153,8.0,16.0,85,0.00,,,0.01,VWS V14.01,2013-03-09 04:00:00,
2013-03-08 22:04:00,63.0,58.4,30.00,SE,134,9.0,13.0,85,0.00,,,0.01,VWS V14.01,2013-03-09 04:04:00,
2013-03-08 22:05:00,62.7,58.1,30.00,SSE,150,8.0,14.0,85,0.00,,,0.01,VWS V14.01,2013-03-09 04:05:00,
2013-03-08 22:09:00,63.0,58.4,30.00,SE,144,10.0,19.0,85,0.00,,,0.01,VWS V14.01,2013-03-09 04:09:00,
2013-03-08 22:10:00,62.8,58.2,30.00,SE,130,11.0,19.0,85,0.00,,,0.01,VWS V14.01,2013-03-09 04:10:00,
2013-03-08 22:14:00,63.0,58.4,30.01,SE,143,14.0,17.0,85,0.00,,,0.01,VWS V14.01,2013-03-09 04:14:00,
2013-03-08 22:15:00,62.8,58.2,30.00,SE,138,11.0,20.0,85,0.00,,,0.01,VWS V14.01,2013-03-09 04:15:00,
2013-03-08 22:19:00,63.1,58.5,30.01,SSE,149,10.0,18.0,85,0.00,,,0.01,VWS V14.01,2013-03-09 04:19:00,
2013-03-08 22:20:00,62.7,58.1,30.00,ESE,123,10.0,14.0,85,0.00,,,0.01,VWS V14.01,2013-03-09 04:20:00,
2013-03-08 22:24:00,63.0,58.4,30.01,SE,136,11.0,17.0,85,0.00,,,0.01,VWS V14.01,2013-03-09 04:24:00,
2013-03-08 22:25:00,62.7,58.1,29.99,ESE,111,9.0,18.0,85,0.00,,,0.01,VWS V14.01,2013-03-09 04:25:00,
2013-03-08 22:29:00,62.9,58.3,30.00,SE,133,10.0,15.0,85,0.00,,,0.01,VWS V14.01,2013-03-09 04:29:00,
2013-03-08 22:30:00,62.6,58.0,29.99,East,100,7.0,16.0,85,0.00,,,0.01,VWS V14.01,2013-03-09 04:30:00,
2013-03-08 22:34:00,62.9,58.3,30.01,SE,128,12.0,17.0,85,0.00,,,0.01,VWS V14.01,2013-03-09 04:34:00,
2013-03-08 22:35:00,62.6,58.0,29.98,SE,130,10.0,16.0,85,0.00,,,0.01,VWS V14.01,2013-03-09 04:35:00,
2013-03-08 22:39:00,62.9,58.3,30.01,ESE,114,12.0,17.0,85,0.00,,,0.01,VWS V14.01,2013-03-09 04:39:00,
2013-03-08 22:40:00,62.6,58.0,29.98,SE,140,11.0,16.0,85,0.00,,,0.01,VWS V14.01,2013-03-09 04:40:00,
2013-03-08 22:44:00,62.9,58.3,30.00,SE,132,11.0,17.0,85,0.00,,,0.01,VWS V14.01,2013-03-09 04:44:00,
2013-03-08 22:45:00,62.5,57.9,29.98,SE,144,9.0,18.0,85,0.00,,,0.01,VWS V14.01,2013-03-09 04:45:00,
2013-03-08 22:49:00,62.8,58.2,30.00,SE,140,14.0,19.0,85,0.00,,,0.01,VWS V14.01,2013-03-09 04:49:00,
2013-03-08 22:50:00,62.5,57.9,29.98,SE,127,10.0,16.0,85,0.00,,,0.01,VWS V14.01,2013-03-09 04:50:00,
2013-03-08 22:54:00,62.8,58.2,30.00,SE,127,8.0,17.0,85,0.00,,,0.01,VWS V14.01,2013-03-09 04:54:00,
2013-03-08 22:55:00,62.4,58.2,29.98,SE,142,11.0,14.0,86,0.00,,,0.01,VWS V14.01,2013-03-09 04:55:00,
2013-03-08 22:59:00,62.8,58.2,30.00,SE,133,11.0,16.0,85,0.00,,,0.01,VWS V14.01,2013-03-09 04:59:00,
2013-03-08 23:00:00,62.8,58.2,30.00,SSE,156,12.0,16.0,85,0.00,,,0.01,VWS V14.01,2013-03-09 05:00:00,
2013-03-08 23:05:00,62.7,58.1,30.00,SE,129,15.0,15.0,85,0.00,,,0.01,VWS V14.01,2013-03-09 05:05:00,
2013-03-08 23:10:00,62.8,58.2,30.00,SE,137,8.0,11.0,85,0.00,,,0.01,VWS V14.01,2013-03-09 05:10:00,
2013-03-08 23:15:00,62.8,58.2,30.00,ESE,123,12.0,12.0,85,0.00,,,0.01,VWS V14.01,2013-03-09 05:15:00,
2013-03-08 23:20:00,62.6,58.0,29.99,SE,133,11.0,12.0,85,0.00,,,0.01,VWS V14.01,2013-03-09 05:20:00,
2013-03-08 23:25:00,62.6,58.0,29.99,SE,132,9.0,9.0,85,0.00,,,0.01,VWS V14.01,2013-03-09 05:25:00,
2013-03-08 23:30:00,62.6,58.0,29.98,SE,128,8.0,9.0,85,0.00,,,0.01,VWS V14.01,2013-03-09 05:30:00,
2013-03-08 23:35:00,62.6,58.0,29.98,SE,133,12.0,12.0,85,0.00,,,0.01,VWS V14.01,2013-03-09 05:35:00,
2013-03-08 23:40:00,62.6,58.0,29.98,SE,126,10.0,11.0,85,0.00,,,0.01,VWS V14.01,2013-03-09 05:40:00,
2013-03-08 23:45:00,62.6,58.0,29.98,SE,136,11.0,11.0,85,0.00,,,0.01,VWS V14.01,2013-03-09 05:45:00,
2013-03-08 23:50:00,62.5,57.9,29.98,SE,133,7.0,10.0,85,0.00,,,0.01,VWS V14.01,2013-03-09 05:50:00,
2013-03-08 23:55:00,62.4,58.2,29.98,SE,146,9.0,11.0,86,0.00,,,0.01,VWS V14.01,2013-03-09 05:55:00,